< < Back
Terminal Aerodrome Forecast


Current Version              Previous Versions:   1  2  3  4  5  6  7  8  9  

Terminal Aerodrome Forecast

545
FTUS42 KGSP 050535
TAFGSP
TAF
KGSP 050535Z 0506/0606 05007KT P6SM SCT040 BKN100
      TEMPO 0506/0510 5SM BR
     FM051000 05009KT P6SM OVC015
     FM051500 05009KT P6SM BKN025
     FM051700 05008KT P6SM BKN045 PROB30 0517/0523 4SM TSRA BKN040CB
     FM052300 05007KT P6SM BKN045 PROB30 0523/0602 4SM TSRA BKN040CB
     FM060200 04006KT P6SM BKN045=



Latest METAR

422
SAUS70 KWBC 051200 RRK
MTRGSP
METAR KGSP 051153Z 01005KT 9SM CLR 21/18 A3014 RMK AO2 SLP196 70081
T02060183 10211 20200 53015


USA.gov is the U.S. government's official web portal to all federal, state and local government web resources and services.